createdAt,value
2018-06-11T00:01:36.684Z,54.60
2018-06-11T00:04:11.221Z,54.70
2018-06-11T00:06:45.542Z,54.70
2018-06-11T00:09:19.851Z,55.50
2018-06-11T00:11:54.100Z,56.90
2018-06-11T00:14:28.456Z,57.00
2018-06-11T00:19:37.097Z,58.00
2018-06-11T00:22:11.351Z,57.30
2018-06-11T00:24:45.656Z,57.80
2018-06-11T00:27:19.883Z,56.60
2018-06-11T00:29:54.190Z,57.20
2018-06-11T00:32:28.660Z,57.30
2018-06-11T00:35:03.044Z,57.00
2018-06-11T00:37:37.284Z,56.60
2018-06-11T00:40:11.577Z,57.00
2018-06-11T00:42:45.879Z,57.70
2018-06-11T00:45:20.184Z,58.00
2018-06-11T00:47:54.688Z,57.60
2018-06-11T00:50:28.844Z,57.10
2018-06-11T00:53:03.073Z,56.60
2018-06-11T00:55:48.946Z,56.50
2018-06-11T00:58:23.266Z,55.40
2018-06-11T01:00:57.609Z,55.50
2018-06-11T01:06:05.940Z,54.70
2018-06-11T01:08:40.266Z,55.00
2018-06-11T01:11:14.627Z,54.80
2018-06-11T01:13:48.986Z,54.20
2018-06-11T01:16:23.322Z,54.30
2018-06-11T01:18:57.644Z,54.20
2018-06-11T01:24:06.129Z,54.40
2018-06-11T01:26:40.376Z,55.10
2018-06-11T01:29:14.649Z,53.90
2018-06-11T01:31:48.926Z,53.30
2018-06-11T01:34:23.132Z,52.60
2018-06-11T01:36:57.531Z,52.10
2018-06-11T01:39:32.004Z,51.00
2018-06-11T01:42:06.352Z,51.40
2018-06-11T01:44:40.567Z,50.20
2018-06-11T01:47:14.732Z,49.10
2018-06-11T01:49:49.236Z,48.40
2018-06-11T01:52:23.480Z,48.20
2018-06-11T01:54:57.693Z,47.40
2018-06-11T01:57:32.104Z,47.30
2018-06-11T02:00:06.284Z,47.90
2018-06-11T02:02:40.484Z,46.10
2018-06-11T02:05:14.840Z,45.60
2018-06-11T02:07:49.021Z,45.70
2018-06-11T02:10:23.386Z,44.60
2018-06-11T02:12:57.770Z,44.70
2018-06-11T02:15:32.048Z,42.50
2018-06-11T02:18:06.294Z,41.30
2018-06-11T02:20:41.128Z,39.10
2018-06-11T02:29:24.140Z,35.90
2018-06-11T02:31:58.361Z,35.20
2018-06-11T02:34:32.880Z,35.00
2018-06-11T02:37:07.208Z,35.10
2018-06-11T02:39:41.603Z,35.20
2018-06-11T02:42:15.924Z,35.30
2018-06-11T02:44:50.252Z,35.80
2018-06-11T02:47:24.661Z,37.10
2018-06-11T02:49:59.717Z,37.50
2018-06-11T02:52:34.112Z,38.60
2018-06-11T02:55:09.160Z,40.10
2018-06-11T02:57:43.681Z,40.30
2018-06-11T03:00:19.124Z,40.90
2018-06-11T03:02:53.531Z,40.00
2018-06-11T03:05:29.196Z,39.40
2018-06-11T03:08:03.463Z,39.00
2018-06-11T03:13:12.304Z,37.70
2018-06-11T03:15:49.017Z,37.00
2018-06-11T03:18:25.624Z,37.00
2018-06-11T03:20:59.990Z,36.60
2018-06-11T03:23:34.243Z,35.40
2018-06-11T03:28:42.656Z,32.70
2018-06-11T03:31:16.989Z,33.60
2018-06-11T03:33:51.327Z,31.00
2018-06-11T03:36:26.396Z,28.50
2018-06-11T03:39:00.612Z,28.60
2018-06-11T03:41:35.125Z,28.50
2018-06-11T03:44:09.410Z,28.50
2018-06-11T03:49:19.904Z,28.90
2018-06-11T03:51:54.284Z,29.20
2018-06-11T03:54:28.629Z,28.50
2018-06-11T03:59:37.179Z,29.00
2018-06-11T04:02:12.490Z,28.40
2018-06-11T04:04:47.008Z,29.60
2018-06-11T04:07:21.327Z,30.00
2018-06-11T04:09:56.604Z,30.00
2018-06-11T04:12:31.293Z,30.90
2018-06-11T04:15:05.840Z,30.90
2018-06-11T04:17:40.581Z,30.50
2018-06-11T04:20:14.902Z,29.10
2018-06-11T04:22:49.416Z,28.50
2018-06-11T04:25:24.033Z,28.10
2018-06-11T04:27:58.604Z,27.50
2018-06-11T04:30:33.676Z,26.40
2018-06-11T04:33:07.908Z,26.20
2018-06-11T04:35:42.349Z,25.60
2018-06-11T04:38:17.100Z,24.90
2018-06-11T04:40:51.838Z,26.30
2018-06-11T04:43:26.241Z,25.80
2018-06-11T04:46:00.545Z,25.30
2018-06-11T04:48:36.613Z,24.20
2018-06-11T04:51:10.932Z,23.50
2018-06-11T04:53:45.128Z,24.30
2018-06-11T04:56:19.570Z,25.10
2018-06-11T04:58:53.772Z,24.20
2018-06-11T05:01:28.206Z,24.60
2018-06-11T05:04:02.648Z,23.30
2018-06-11T05:06:37.037Z,22.20
2018-06-11T05:09:11.338Z,21.50
2018-06-11T05:11:46.468Z,21.30
2018-06-11T05:14:20.924Z,20.00
2018-06-11T05:16:55.393Z,18.30
2018-06-11T05:19:29.866Z,16.40
2018-06-11T05:22:04.309Z,17.70
2018-06-11T05:24:38.594Z,15.00
2018-06-11T05:27:13.758Z,14.00
2018-06-11T05:29:49.604Z,13.90
2018-06-11T05:32:25.712Z,14.40
2018-06-11T05:34:59.956Z,13.90
2018-06-11T05:37:36.038Z,13.90
2018-06-11T05:40:10.851Z,13.80
2018-06-11T05:42:46.111Z,13.80
2018-06-11T05:45:20.428Z,13.80
2018-06-11T05:47:54.870Z,14.30
2018-06-11T05:50:29.116Z,12.10
2018-06-11T05:53:04.135Z,11.00
2018-06-11T05:55:38.385Z,11.70
2018-06-11T05:58:12.595Z,11.40
2018-06-11T06:00:46.923Z,12.10
2018-06-11T06:03:21.349Z,11.00
2018-06-11T06:05:55.689Z,11.10
2018-06-11T06:08:30.068Z,10.20
2018-06-11T06:11:04.492Z,10.30
2018-06-11T06:13:38.672Z,9.40
2018-06-11T06:16:13.182Z,10.10
2018-06-11T06:18:47.496Z,9.70
2018-06-11T06:21:22.206Z,9.10
2018-06-11T06:23:56.502Z,8.50
2018-06-11T06:26:30.876Z,9.20
2018-06-11T06:29:05.234Z,9.30
2018-06-11T06:31:39.722Z,8.10
2018-06-11T06:34:14.269Z,7.80
2018-06-11T06:39:22.516Z,8.20
2018-06-11T06:41:56.760Z,7.10
2018-06-11T06:44:31.088Z,6.70
2018-06-11T06:47:05.774Z,6.80
2018-06-11T06:49:40.209Z,7.80
2018-06-11T06:52:14.556Z,8.30
2018-06-11T06:54:48.907Z,8.40
2018-06-11T06:57:23.809Z,7.60
2018-06-11T06:59:58.112Z,7.70
2018-06-11T07:02:32.416Z,7.40
2018-06-11T07:05:06.747Z,8.20
2018-06-11T07:10:15.097Z,8.50
2018-06-11T07:12:49.299Z,7.60
2018-06-11T07:15:23.641Z,8.10
2018-06-11T07:17:57.902Z,7.90
2018-06-11T07:20:32.156Z,7.00
2018-06-11T07:23:06.572Z,6.90
2018-06-11T07:25:40.825Z,5.60
2018-06-11T07:28:15.004Z,6.30
2018-06-11T07:30:49.244Z,5.20
2018-06-11T07:33:23.765Z,4.20
2018-06-11T07:35:58.052Z,3.90
2018-06-11T07:38:32.408Z,2.90
2018-06-11T07:41:06.689Z,1.00
2018-06-11T07:43:41.038Z,1.00
2018-06-11T07:46:15.261Z,1.00
2018-06-11T07:48:49.688Z,1.00
2018-06-11T07:53:58.013Z,1.00
2018-06-11T07:56:32.320Z,1.00
2018-06-11T07:59:06.545Z,1.00
2018-06-11T08:01:41.747Z,1.00
2018-06-11T08:04:16.675Z,1.00
2018-06-11T08:06:51.045Z,1.00
2018-06-11T08:09:26.053Z,1.00
2018-06-11T08:12:00.337Z,1.00
2018-06-11T08:14:34.704Z,1.00
2018-06-11T08:17:09.128Z,1.00
2018-06-11T08:19:43.522Z,1.00
2018-06-11T08:22:17.869Z,1.00
2018-06-11T08:24:52.258Z,1.00
2018-06-11T08:27:26.498Z,1.00
2018-06-11T08:30:00.725Z,1.00
2018-06-11T08:32:34.996Z,1.00
2018-06-11T08:35:09.100Z,1.00
2018-06-11T08:37:43.451Z,1.00
2018-06-11T08:40:17.761Z,1.00
2018-06-11T08:42:52.081Z,1.00
2018-06-11T08:45:26.484Z,1.00
2018-06-11T08:50:35.020Z,1.00
2018-06-11T08:53:09.381Z,1.00
2018-06-11T08:55:43.730Z,1.00
2018-06-11T08:58:17.916Z,1.00
2018-06-11T09:00:52.215Z,1.00
2018-06-11T09:03:26.548Z,1.00
2018-06-11T09:06:00.831Z,1.00
2018-06-11T09:08:35.102Z,1.00
2018-06-11T09:11:09.481Z,1.00
2018-06-11T09:13:43.720Z,1.00
2018-06-11T09:16:18.040Z,1.00
2018-06-11T09:18:52.439Z,1.00
2018-06-11T09:21:26.877Z,1.00
2018-06-11T09:24:01.080Z,1.00
2018-06-11T09:29:10.063Z,1.00
2018-06-11T09:31:44.225Z,1.00
2018-06-11T09:34:19.452Z,1.00
2018-06-11T09:36:54.004Z,1.00
2018-06-11T09:39:28.385Z,1.00
2018-06-11T09:42:09.214Z,1.00
2018-06-11T09:44:43.380Z,1.00
2018-06-11T09:47:17.657Z,1.00
2018-06-11T09:49:51.944Z,1.00
2018-06-11T09:52:26.279Z,1.00
2018-06-11T09:55:00.572Z,1.00
2018-06-11T09:57:34.865Z,1.00
2018-06-11T10:00:13.386Z,1.00
2018-06-11T10:02:47.650Z,1.00
2018-06-11T10:07:56.101Z,1.00
2018-06-11T10:10:30.580Z,1.00
2018-06-11T10:13:05.140Z,1.00
2018-06-11T10:15:39.353Z,1.00
2018-06-11T10:18:13.924Z,1.00
2018-06-11T10:20:48.232Z,1.00
2018-06-11T10:23:22.744Z,1.00
2018-06-11T10:25:56.854Z,1.00
2018-06-11T10:28:31.163Z,1.00
2018-06-11T10:31:05.569Z,1.00
2018-06-11T10:33:39.793Z,1.00
2018-06-11T10:36:14.134Z,1.00
2018-06-11T10:38:48.462Z,1.00
2018-06-11T10:41:22.754Z,1.00
2018-06-11T10:43:56.945Z,1.00
2018-06-11T10:46:31.372Z,1.00
2018-06-11T10:49:05.915Z,1.00
2018-06-11T10:51:40.182Z,1.00
2018-06-11T10:54:14.318Z,1.00
2018-06-11T10:56:48.728Z,1.00
2018-06-11T10:59:23.052Z,1.00
2018-06-11T11:01:57.276Z,1.00
2018-06-11T11:04:31.542Z,1.00
2018-06-11T11:09:39.941Z,1.00
2018-06-11T11:12:14.263Z,1.00
2018-06-11T11:14:48.613Z,1.00
2018-06-11T11:17:23.945Z,1.00
2018-06-11T11:19:58.427Z,1.00
2018-06-11T11:22:32.656Z,1.00
2018-06-11T11:25:07.231Z,1.00
2018-06-11T11:27:41.469Z,1.00
2018-06-11T11:30:15.954Z,1.00
2018-06-11T11:32:50.387Z,1.00
2018-06-11T11:35:24.654Z,1.00
2018-06-11T11:37:59.041Z,1.00
2018-06-11T11:40:33.408Z,1.00
2018-06-11T11:43:07.728Z,1.00
2018-06-11T11:45:42.021Z,1.00
2018-06-11T11:48:16.333Z,1.00
2018-06-11T11:50:50.672Z,1.00
2018-06-11T11:53:24.911Z,1.00
2018-06-11T11:55:59.102Z,1.00
2018-06-11T11:58:33.413Z,1.00
2018-06-11T12:01:07.752Z,1.00
2018-06-11T12:03:41.999Z,1.00
2018-06-11T12:06:16.269Z,1.00
2018-06-11T12:08:50.571Z,1.00
2018-06-11T12:11:24.899Z,1.00
2018-06-11T12:13:59.223Z,1.00
2018-06-11T12:16:33.557Z,1.00
2018-06-11T12:19:07.892Z,1.00
2018-06-11T12:21:42.178Z,1.00
2018-06-11T12:24:16.496Z,1.00
2018-06-11T12:26:50.687Z,1.00
2018-06-11T12:29:24.991Z,1.00
2018-06-11T12:31:59.761Z,1.00
2018-06-11T12:37:19.963Z,1.00
2018-06-11T12:39:54.444Z,1.00
2018-06-11T12:42:28.610Z,1.00
2018-06-11T12:45:02.959Z,1.00
2018-06-11T12:47:37.293Z,1.00
2018-06-11T12:50:11.499Z,1.00
2018-06-11T12:52:45.779Z,1.00
2018-06-11T12:55:20.125Z,1.00
2018-06-11T12:57:54.372Z,1.00
2018-06-11T13:00:28.769Z,1.00
2018-06-11T13:03:03.004Z,1.00
2018-06-11T13:05:37.349Z,1.00
2018-06-11T13:08:11.447Z,1.00
2018-06-11T13:10:45.738Z,1.00
2018-06-11T13:13:19.813Z,1.00
2018-06-11T13:18:27.916Z,1.00
2018-06-11T13:21:02.193Z,1.00
2018-06-11T13:23:37.398Z,1.00
2018-06-11T13:26:13.921Z,1.00
2018-06-11T13:28:48.203Z,1.00
2018-06-11T13:31:22.565Z,1.00
2018-06-11T13:33:56.893Z,1.00
2018-06-11T13:36:31.489Z,1.00
2018-06-11T13:39:07.856Z,1.00
2018-06-11T13:41:42.188Z,1.00
2018-06-11T13:44:16.396Z,1.00
2018-06-11T13:46:50.676Z,1.00
2018-06-11T13:49:25.028Z,1.00
2018-06-11T13:51:59.237Z,1.00
2018-06-11T13:54:33.581Z,1.00
2018-06-11T13:57:07.885Z,1.00
2018-06-11T13:59:42.132Z,1.00
2018-06-11T14:02:16.283Z,1.00
2018-06-11T14:07:24.489Z,1.00
2018-06-11T14:09:58.754Z,1.00
2018-06-11T14:12:32.962Z,1.00
2018-06-11T14:15:07.299Z,1.00
2018-06-11T14:17:41.530Z,1.00
2018-06-11T14:20:15.829Z,1.00
2018-06-11T14:22:50.157Z,1.00
2018-06-11T14:25:24.530Z,1.00
2018-06-11T14:27:58.777Z,1.00
2018-06-11T14:30:33.013Z,1.00
2018-06-11T14:33:07.383Z,1.00
2018-06-11T14:35:41.536Z,1.00
2018-06-11T14:38:15.846Z,1.00
2018-06-11T14:40:50.289Z,1.00
2018-06-11T14:43:24.605Z,1.00
2018-06-11T14:45:58.850Z,1.00
2018-06-11T14:48:33.250Z,1.00
2018-06-11T14:51:07.679Z,1.00
2018-06-11T14:53:41.864Z,1.00
2018-06-11T14:56:16.215Z,1.00
2018-06-11T14:58:50.424Z,1.00
2018-06-11T15:01:24.940Z,1.00
2018-06-11T15:03:59.296Z,1.00
2018-06-11T15:09:07.837Z,1.00
2018-06-11T15:11:42.151Z,1.00
2018-06-11T15:14:16.300Z,1.00
2018-06-11T15:16:50.525Z,1.00
2018-06-11T15:19:24.652Z,1.00
2018-06-11T15:21:58.761Z,1.00
2018-06-11T15:24:32.996Z,1.00
2018-06-11T15:27:07.337Z,1.00
2018-06-11T15:29:41.643Z,1.00
2018-06-11T15:32:16.076Z,1.00
2018-06-11T15:34:51.318Z,1.00
2018-06-11T15:37:25.600Z,1.00
2018-06-11T15:39:59.852Z,1.00
2018-06-11T15:42:34.031Z,1.00
2018-06-11T15:45:08.322Z,1.00
2018-06-11T15:47:43.626Z,1.00
2018-06-11T15:50:17.900Z,1.00
2018-06-11T15:52:52.232Z,1.00
2018-06-11T15:55:26.517Z,1.00
2018-06-11T15:58:00.781Z,1.00
2018-06-11T16:00:35.113Z,1.00
2018-06-11T16:03:09.497Z,1.00
2018-06-11T16:05:43.916Z,1.00
2018-06-11T16:08:18.428Z,1.00
2018-06-11T16:10:52.658Z,1.00
2018-06-11T16:13:27.062Z,1.00
2018-06-11T16:16:01.181Z,1.00
2018-06-11T16:18:35.909Z,1.00
2018-06-11T16:21:10.151Z,1.00
2018-06-11T16:23:44.455Z,1.00
2018-06-11T16:26:18.628Z,1.00
2018-06-11T16:28:53.225Z,1.00
2018-06-11T16:31:28.360Z,1.00
2018-06-11T16:34:05.941Z,1.00
2018-06-11T16:36:43.257Z,1.00
2018-06-11T16:39:18.705Z,1.00
2018-06-11T16:41:56.269Z,1.00
2018-06-11T16:44:31.918Z,1.00
2018-06-11T16:47:07.573Z,1.00
2018-06-11T16:49:49.721Z,1.00
2018-06-11T16:52:24.942Z,1.00
2018-06-11T16:55:00.069Z,1.00
2018-06-11T16:57:38.307Z,1.00
2018-06-11T17:00:15.751Z,1.00
2018-06-11T17:02:50.800Z,1.00
2018-06-11T17:05:26.294Z,1.00
2018-06-11T17:08:01.754Z,1.00
2018-06-11T17:10:37.644Z,1.00
2018-06-11T17:13:16.061Z,1.00
2018-06-11T17:15:52.764Z,1.00
2018-06-11T17:21:03.837Z,1.00
2018-06-11T17:23:46.782Z,1.00
2018-06-11T17:26:33.563Z,1.00
2018-06-11T17:29:12.833Z,1.00
2018-06-11T17:31:49.648Z,1.00
2018-06-11T17:34:24.279Z,1.00
2018-06-11T17:37:05.093Z,1.00
2018-06-11T17:39:41.765Z,1.00
2018-06-11T17:42:20.697Z,1.00
2018-06-11T17:44:58.828Z,1.00
2018-06-11T17:47:34.657Z,1.00
2018-06-11T17:50:10.466Z,1.00
2018-06-11T17:55:26.881Z,1.00
2018-06-11T17:58:01.258Z,1.00
2018-06-11T18:00:35.877Z,1.00
2018-06-11T18:03:10.862Z,1.00
2018-06-11T18:05:46.340Z,1.00
2018-06-11T18:08:20.853Z,1.00
2018-06-11T18:10:55.066Z,1.00
2018-06-11T18:13:30.105Z,1.00
2018-06-11T18:16:10.507Z,1.00
2018-06-11T18:18:47.515Z,1.00
2018-06-11T18:21:22.394Z,1.00
2018-06-11T18:23:57.244Z,1.00
2018-06-11T18:26:33.796Z,1.00
2018-06-11T18:29:09.072Z,1.00
2018-06-11T18:31:44.419Z,1.00
2018-06-11T18:34:19.743Z,1.00
2018-06-11T18:39:30.600Z,1.00
2018-06-11T18:42:10.950Z,1.00
2018-06-11T18:44:45.535Z,1.00
2018-06-11T18:47:20.325Z,1.00
2018-06-11T18:49:54.938Z,1.00
2018-06-11T18:52:32.345Z,1.00
2018-06-11T18:55:09.712Z,1.00
2018-06-11T18:57:45.282Z,1.00
2018-06-11T19:00:30.394Z,1.00
2018-06-11T19:03:04.812Z,1.00
2018-06-11T19:05:39.496Z,1.00
2018-06-11T19:08:14.425Z,1.00
2018-06-11T19:10:49.472Z,1.00
2018-06-11T19:13:24.776Z,1.00
2018-06-11T19:15:59.775Z,1.00
2018-06-11T19:18:34.376Z,1.00
2018-06-11T19:23:46.282Z,1.00
2018-06-11T19:26:24.875Z,1.00
2018-06-11T19:28:59.395Z,1.00
2018-06-11T19:31:34.563Z,1.00
2018-06-11T19:34:11.770Z,1.00
2018-06-11T19:37:01.712Z,1.00
2018-06-11T19:39:36.471Z,1.00
2018-06-11T19:42:12.572Z,1.00
2018-06-11T19:44:49.438Z,1.00
2018-06-11T19:47:24.090Z,1.00
2018-06-11T19:49:59.251Z,1.00
2018-06-11T19:52:46.015Z,1.00
2018-06-11T19:55:21.598Z,1.00
2018-06-11T19:57:56.147Z,1.00
2018-06-11T20:00:30.562Z,1.00
2018-06-11T20:03:05.946Z,1.00
2018-06-11T20:05:42.321Z,1.00
2018-06-11T20:08:27.143Z,1.00
2018-06-11T20:11:04.261Z,1.00
2018-06-11T20:13:39.950Z,1.00
2018-06-11T20:16:16.368Z,1.00
2018-06-11T20:18:56.694Z,1.00
2018-06-11T20:21:34.380Z,1.00
2018-06-11T20:27:06.417Z,1.00
2018-06-11T20:29:41.991Z,1.00
2018-06-11T20:32:16.558Z,1.00
2018-06-11T20:34:53.276Z,1.00
2018-06-11T20:37:28.094Z,1.00
2018-06-11T20:40:07.786Z,1.00
2018-06-11T20:42:42.460Z,1.00
2018-06-11T20:45:20.256Z,1.00
2018-06-11T20:48:05.006Z,1.00
2018-06-11T20:50:39.810Z,1.00
2018-06-11T20:53:14.615Z,1.00
2018-06-11T20:55:50.858Z,1.00
2018-06-11T20:58:25.553Z,1.00
2018-06-11T21:01:02.236Z,1.00
2018-06-11T21:03:47.278Z,1.00
2018-06-11T21:06:22.989Z,1.00
2018-06-11T21:08:57.317Z,1.00
2018-06-11T21:14:19.273Z,1.00
2018-06-11T21:16:59.345Z,1.00
2018-06-11T21:19:34.539Z,1.00
2018-06-11T21:25:06.736Z,1.00
2018-06-11T21:27:42.084Z,1.00
2018-06-11T21:30:17.790Z,1.00
2018-06-11T21:32:52.590Z,2.10
2018-06-11T21:35:27.673Z,1.00
2018-06-11T21:38:02.021Z,2.30
2018-06-11T21:40:37.380Z,3.00
2018-06-11T21:43:11.753Z,4.00
2018-06-11T21:45:47.786Z,5.50
2018-06-11T21:48:22.480Z,6.80
2018-06-11T21:50:58.689Z,8.20
2018-06-11T21:53:37.981Z,9.10
2018-06-11T21:56:12.389Z,10.20
2018-06-11T21:58:46.711Z,11.60
2018-06-11T22:01:23.017Z,12.60
2018-06-11T22:03:58.193Z,14.20
2018-06-11T22:06:32.396Z,14.70
2018-06-11T22:09:08.377Z,15.60
2018-06-11T22:11:45.636Z,16.50
2018-06-11T22:14:25.675Z,17.10
2018-06-11T22:17:00.307Z,17.50
2018-06-11T22:19:35.084Z,18.40
2018-06-11T22:22:09.384Z,18.20
2018-06-11T22:24:44.208Z,19.00
2018-06-11T22:27:18.755Z,19.50
2018-06-11T22:29:53.207Z,20.70
2018-06-11T22:32:27.473Z,21.20
2018-06-11T22:35:02.519Z,21.20
2018-06-11T22:37:37.043Z,21.90
2018-06-11T22:40:11.354Z,22.40
2018-06-11T22:42:45.948Z,22.60
2018-06-11T22:45:20.498Z,22.70
2018-06-11T22:47:55.447Z,23.30
2018-06-11T22:50:30.789Z,24.00
2018-06-11T22:53:07.560Z,24.50
2018-06-11T22:55:42.130Z,24.90
2018-06-11T22:58:16.515Z,25.20
2018-06-11T23:00:53.317Z,25.00
2018-06-11T23:03:27.765Z,25.40
2018-06-11T23:06:02.221Z,26.90
2018-06-11T23:08:36.826Z,27.20
2018-06-11T23:11:11.448Z,26.80
2018-06-11T23:13:45.947Z,26.50
2018-06-11T23:16:20.388Z,26.40
2018-06-11T23:18:55.691Z,26.60
2018-06-11T23:21:30.156Z,27.40
2018-06-11T23:24:04.660Z,27.70
2018-06-11T23:26:39.204Z,28.80
2018-06-11T23:29:13.681Z,29.30
2018-06-11T23:31:48.124Z,29.90
2018-06-11T23:34:23.754Z,30.80
2018-06-11T23:36:59.441Z,31.30
2018-06-11T23:39:34.002Z,31.70
2018-06-11T23:42:08.494Z,31.00
2018-06-11T23:48:01.180Z,30.50
2018-06-11T23:50:36.652Z,31.10
